sensor_id;sensor_type;location;lat;lon;timestamp;temperature;humidity
17346;DHT22;8790;53.590;10.002;2022-11-09T00:01:11;14.40;99.90
17346;DHT22;8790;53.590;10.002;2022-11-09T00:03:42;14.40;99.90
17346;DHT22;8790;53.590;10.002;2022-11-09T00:06:14;14.40;99.90
17346;DHT22;8790;53.590;10.002;2022-11-09T00:08:46;14.40;99.90
17346;DHT22;8790;53.590;10.002;2022-11-09T00:11:18;14.40;99.90
17346;DHT22;8790;53.590;10.002;2022-11-09T00:13:51;14.40;99.90
17346;DHT22;8790;53.590;10.002;2022-11-09T00:16:23;14.30;99.90
17346;DHT22;8790;53.590;10.002;2022-11-09T00:18:55;14.30;99.90
17346;DHT22;8790;53.590;10.002;2022-11-09T00:21:26;14.30;99.90
17346;DHT22;8790;53.590;10.002;2022-11-09T00:23:58;14.30;99.90
17346;DHT22;8790;53.590;10.002;2022-11-09T00:26:30;14.30;99.90
17346;DHT22;8790;53.590;10.002;2022-11-09T00:29:04;14.30;99.90
17346;DHT22;8790;53.590;10.002;2022-11-09T00:31:36;14.30;99.90
17346;DHT22;8790;53.590;10.002;2022-11-09T00:34:08;14.30;99.90
17346;DHT22;8790;53.590;10.002;2022-11-09T00:36:40;14.30;99.90
17346;DHT22;8790;53.590;10.002;2022-11-09T00:39:12;14.30;99.90
17346;DHT22;8790;53.590;10.002;2022-11-09T00:41:44;14.20;99.90
17346;DHT22;8790;53.590;10.002;2022-11-09T00:44:17;14.20;99.90
17346;DHT22;8790;53.590;10.002;2022-11-09T00:46:48;14.20;99.90
17346;DHT22;8790;53.590;10.002;2022-11-09T00:49:21;14.10;99.90
17346;DHT22;8790;53.590;10.002;2022-11-09T00:51:53;14.10;99.90
17346;DHT22;8790;53.590;10.002;2022-11-09T00:54:25;14.10;99.90
17346;DHT22;8790;53.590;10.002;2022-11-09T00:56:56;14.10;99.90
17346;DHT22;8790;53.590;10.002;2022-11-09T00:59:30;14.00;99.90
17346;DHT22;8790;53.590;10.002;2022-11-09T01:02:01;14.00;99.90
17346;DHT22;8790;53.590;10.002;2022-11-09T01:04:33;14.00;99.90
17346;DHT22;8790;53.590;10.002;2022-11-09T01:07:06;14.00;99.90
17346;DHT22;8790;53.590;10.002;2022-11-09T01:09:38;14.00;99.90
17346;DHT22;8790;53.590;10.002;2022-11-09T01:12:10;14.00;99.90
17346;DHT22;8790;53.590;10.002;2022-11-09T01:14:43;14.00;99.90
17346;DHT22;8790;53.590;10.002;2022-11-09T01:17:15;14.00;99.90
17346;DHT22;8790;53.590;10.002;2022-11-09T01:19:46;14.00;99.90
17346;DHT22;8790;53.590;10.002;2022-11-09T01:22:18;13.90;99.90
17346;DHT22;8790;53.590;10.002;2022-11-09T01:24:51;13.90;99.90
17346;DHT22;8790;53.590;10.002;2022-11-09T01:27:23;13.90;99.90
17346;DHT22;8790;53.590;10.002;2022-11-09T01:29:56;13.90;99.90
17346;DHT22;8790;53.590;10.002;2022-11-09T01:32:30;14.00;99.90
17346;DHT22;8790;53.590;10.002;2022-11-09T01:35:02;13.90;99.90
17346;DHT22;8790;53.590;10.002;2022-11-09T01:37:34;13.90;99.90
17346;DHT22;8790;53.590;10.002;2022-11-09T01:40:07;13.90;99.90
17346;DHT22;8790;53.590;10.002;2022-11-09T01:42:45;13.80;99.90
17346;DHT22;8790;53.590;10.002;2022-11-09T01:45:27;13.90;99.90
17346;DHT22;8790;53.590;10.002;2022-11-09T01:48:02;13.90;99.90
17346;DHT22;8790;53.590;10.002;2022-11-09T01:50:40;13.80;99.90
17346;DHT22;8790;53.590;10.002;2022-11-09T01:53:16;13.80;99.90
17346;DHT22;8790;53.590;10.002;2022-11-09T01:55:52;13.70;99.90
17346;DHT22;8790;53.590;10.002;2022-11-09T01:58:28;13.70;99.90
17346;DHT22;8790;53.590;10.002;2022-11-09T02:01:02;13.70;99.90
17346;DHT22;8790;53.590;10.002;2022-11-09T02:03:42;13.70;99.90
17346;DHT22;8790;53.590;10.002;2022-11-09T02:06:17;13.70;99.90
17346;DHT22;8790;53.590;10.002;2022-11-09T02:08:53;13.70;99.90
17346;DHT22;8790;53.590;10.002;2022-11-09T02:11:27;13.70;99.90
17346;DHT22;8790;53.590;10.002;2022-11-09T02:14:02;13.70;99.90
17346;DHT22;8790;53.590;10.002;2022-11-09T02:16:36;13.70;99.90
17346;DHT22;8790;53.590;10.002;2022-11-09T02:19:08;13.70;99.90
17346;DHT22;8790;53.590;10.002;2022-11-09T02:21:41;13.70;99.90
17346;DHT22;8790;53.590;10.002;2022-11-09T02:24:13;13.70;99.90
17346;DHT22;8790;53.590;10.002;2022-11-09T02:26:47;13.70;99.90
17346;DHT22;8790;53.590;10.002;2022-11-09T02:29:22;13.70;99.90
17346;DHT22;8790;53.590;10.002;2022-11-09T02:31:58;13.70;99.90
17346;DHT22;8790;53.590;10.002;2022-11-09T02:34:32;13.70;99.90
17346;DHT22;8790;53.590;10.002;2022-11-09T02:37:07;13.70;99.90
17346;DHT22;8790;53.590;10.002;2022-11-09T02:39:38;13.70;99.90
17346;DHT22;8790;53.590;10.002;2022-11-09T02:42:13;13.80;99.90
17346;DHT22;8790;53.590;10.002;2022-11-09T02:44:48;13.80;99.90
17346;DHT22;8790;53.590;10.002;2022-11-09T02:47:21;13.80;99.90
17346;DHT22;8790;53.590;10.002;2022-11-09T02:49:53;13.80;99.90
17346;DHT22;8790;53.590;10.002;2022-11-09T02:52:28;13.80;99.90
17346;DHT22;8790;53.590;10.002;2022-11-09T02:55:00;13.80;99.90
17346;DHT22;8790;53.590;10.002;2022-11-09T02:57:32;13.80;99.90
17346;DHT22;8790;53.590;10.002;2022-11-09T03:00:08;13.80;99.90
17346;DHT22;8790;53.590;10.002;2022-11-09T03:02:40;13.80;99.90
17346;DHT22;8790;53.590;10.002;2022-11-09T03:05:12;13.80;99.90
17346;DHT22;8790;53.590;10.002;2022-11-09T03:07:48;13.80;99.90
17346;DHT22;8790;53.590;10.002;2022-11-09T03:10:19;13.80;99.90
17346;DHT22;8790;53.590;10.002;2022-11-09T03:12:53;13.70;99.90
17346;DHT22;8790;53.590;10.002;2022-11-09T03:15:25;13.70;99.90
17346;DHT22;8790;53.590;10.002;2022-11-09T03:17:56;13.70;99.90
17346;DHT22;8790;53.590;10.002;2022-11-09T03:20:29;13.70;99.90
17346;DHT22;8790;53.590;10.002;2022-11-09T03:23:02;13.70;99.90
17346;DHT22;8790;53.590;10.002;2022-11-09T03:25:37;13.70;99.90
17346;DHT22;8790;53.590;10.002;2022-11-09T03:28:09;13.70;99.90
17346;DHT22;8790;53.590;10.002;2022-11-09T03:30:43;13.70;99.90
17346;DHT22;8790;53.590;10.002;2022-11-09T03:33:15;13.70;99.90
17346;DHT22;8790;53.590;10.002;2022-11-09T03:35:47;13.70;99.90
17346;DHT22;8790;53.590;10.002;2022-11-09T03:38:23;13.80;99.90
17346;DHT22;8790;53.590;10.002;2022-11-09T03:40:55;13.70;99.90
17346;DHT22;8790;53.590;10.002;2022-11-09T03:43:27;13.80;99.90
17346;DHT22;8790;53.590;10.002;2022-11-09T03:45:58;13.70;99.90
17346;DHT22;8790;53.590;10.002;2022-11-09T03:48:30;13.70;99.90
17346;DHT22;8790;53.590;10.002;2022-11-09T03:51:02;13.70;99.90
17346;DHT22;8790;53.590;10.002;2022-11-09T03:53:35;13.70;99.90
17346;DHT22;8790;53.590;10.002;2022-11-09T03:56:07;13.70;99.90
17346;DHT22;8790;53.590;10.002;2022-11-09T03:58:38;13.80;99.90
17346;DHT22;8790;53.590;10.002;2022-11-09T04:01:10;13.80;99.90
17346;DHT22;8790;53.590;10.002;2022-11-09T04:03:42;13.80;99.90
17346;DHT22;8790;53.590;10.002;2022-11-09T04:06:13;13.80;99.90
17346;DHT22;8790;53.590;10.002;2022-11-09T04:08:46;13.80;99.90
17346;DHT22;8790;53.590;10.002;2022-11-09T04:11:18;13.80;99.90
17346;DHT22;8790;53.590;10.002;2022-11-09T04:13:50;13.90;99.90
17346;DHT22;8790;53.590;10.002;2022-11-09T04:16:22;13.90;99.90
17346;DHT22;8790;53.590;10.002;2022-11-09T04:18:53;13.90;99.90
17346;DHT22;8790;53.590;10.002;2022-11-09T04:21:25;13.90;99.90
17346;DHT22;8790;53.590;10.002;2022-11-09T04:23:58;13.90;99.90
17346;DHT22;8790;53.590;10.002;2022-11-09T04:26:30;13.90;99.90
17346;DHT22;8790;53.590;10.002;2022-11-09T04:29:02;13.90;99.90
17346;DHT22;8790;53.590;10.002;2022-11-09T04:31:34;14.00;99.90
17346;DHT22;8790;53.590;10.002;2022-11-09T04:34:05;14.00;99.90
17346;DHT22;8790;53.590;10.002;2022-11-09T04:36:37;14.00;99.90
17346;DHT22;8790;53.590;10.002;2022-11-09T04:39:11;13.90;99.90
17346;DHT22;8790;53.590;10.002;2022-11-09T04:41:42;13.90;99.90
17346;DHT22;8790;53.590;10.002;2022-11-09T04:44:14;13.90;99.90
17346;DHT22;8790;53.590;10.002;2022-11-09T04:46:46;13.90;99.90
17346;DHT22;8790;53.590;10.002;2022-11-09T04:49:17;13.90;99.90
17346;DHT22;8790;53.590;10.002;2022-11-09T04:51:49;13.90;99.90
17346;DHT22;8790;53.590;10.002;2022-11-09T04:54:22;13.90;99.90
17346;DHT22;8790;53.590;10.002;2022-11-09T04:59:51;13.90;99.90
17346;DHT22;8790;53.590;10.002;2022-11-09T05:02:23;13.90;99.90
17346;DHT22;8790;53.590;10.002;2022-11-09T05:04:55;13.90;99.90
17346;DHT22;8790;53.590;10.002;2022-11-09T05:07:26;13.90;99.90
17346;DHT22;8790;53.590;10.002;2022-11-09T05:09:59;13.90;99.90
17346;DHT22;8790;53.590;10.002;2022-11-09T05:12:31;13.90;99.90
17346;DHT22;8790;53.590;10.002;2022-11-09T05:15:03;13.90;99.90
17346;DHT22;8790;53.590;10.002;2022-11-09T05:17:35;13.90;99.90
17346;DHT22;8790;53.590;10.002;2022-11-09T05:20:08;13.90;99.90
17346;DHT22;8790;53.590;10.002;2022-11-09T05:22:40;13.90;99.90
17346;DHT22;8790;53.590;10.002;2022-11-09T05:25:30;13.90;99.90
17346;DHT22;8790;53.590;10.002;2022-11-09T05:28:02;13.90;99.90
17346;DHT22;8790;53.590;10.002;2022-11-09T05:30:34;14.00;99.90
17346;DHT22;8790;53.590;10.002;2022-11-09T05:33:06;14.00;99.90
17346;DHT22;8790;53.590;10.002;2022-11-09T05:35:37;14.00;99.90
17346;DHT22;8790;53.590;10.002;2022-11-09T05:38:09;13.90;99.90
17346;DHT22;8790;53.590;10.002;2022-11-09T05:40:42;14.00;99.90
17346;DHT22;8790;53.590;10.002;2022-11-09T05:43:14;14.00;99.90
17346;DHT22;8790;53.590;10.002;2022-11-09T05:45:46;14.00;99.90
17346;DHT22;8790;53.590;10.002;2022-11-09T05:48:18;13.90;99.90
17346;DHT22;8790;53.590;10.002;2022-11-09T05:50:50;13.90;99.90
17346;DHT22;8790;53.590;10.002;2022-11-09T05:53:27;13.90;99.90
17346;DHT22;8790;53.590;10.002;2022-11-09T05:56:05;13.90;99.90
17346;DHT22;8790;53.590;10.002;2022-11-09T05:58:38;14.00;99.90
17346;DHT22;8790;53.590;10.002;2022-11-09T06:01:12;13.90;99.90
17346;DHT22;8790;53.590;10.002;2022-11-09T06:03:44;13.90;99.90
17346;DHT22;8790;53.590;10.002;2022-11-09T06:06:17;13.90;99.90
17346;DHT22;8790;53.590;10.002;2022-11-09T06:08:48;13.90;99.90
17346;DHT22;8790;53.590;10.002;2022-11-09T06:11:21;13.90;99.90
17346;DHT22;8790;53.590;10.002;2022-11-09T06:13:53;13.90;99.90
17346;DHT22;8790;53.590;10.002;2022-11-09T06:16:25;13.90;99.90
17346;DHT22;8790;53.590;10.002;2022-11-09T06:18:56;13.90;99.90
17346;DHT22;8790;53.590;10.002;2022-11-09T06:21:28;13.90;99.90
17346;DHT22;8790;53.590;10.002;2022-11-09T06:24:00;13.90;99.90
17346;DHT22;8790;53.590;10.002;2022-11-09T06:26:34;13.90;99.90
17346;DHT22;8790;53.590;10.002;2022-11-09T06:29:06;13.90;99.90
17346;DHT22;8790;53.590;10.002;2022-11-09T06:31:39;13.90;99.90
17346;DHT22;8790;53.590;10.002;2022-11-09T06:34:12;14.00;99.90
17346;DHT22;8790;53.590;10.002;2022-11-09T06:36:44;13.90;99.90
17346;DHT22;8790;53.590;10.002;2022-11-09T06:39:15;13.90;99.90
17346;DHT22;8790;53.590;10.002;2022-11-09T06:41:49;14.00;99.90
17346;DHT22;8790;53.590;10.002;2022-11-09T06:44:20;14.00;99.90
17346;DHT22;8790;53.590;10.002;2022-11-09T06:46:52;14.00;99.90
17346;DHT22;8790;53.590;10.002;2022-11-09T06:49:24;14.00;99.90
17346;DHT22;8790;53.590;10.002;2022-11-09T06:51:55;14.00;99.90
17346;DHT22;8790;53.590;10.002;2022-11-09T06:54:27;13.90;99.90
17346;DHT22;8790;53.590;10.002;2022-11-09T06:57:00;13.90;99.90
17346;DHT22;8790;53.590;10.002;2022-11-09T06:59:33;13.90;99.90
17346;DHT22;8790;53.590;10.002;2022-11-09T07:02:05;13.90;99.90
17346;DHT22;8790;53.590;10.002;2022-11-09T07:04:37;14.00;99.90
17346;DHT22;8790;53.590;10.002;2022-11-09T07:07:09;14.00;99.90
17346;DHT22;8790;53.590;10.002;2022-11-09T07:09:40;14.00;99.90
17346;DHT22;8790;53.590;10.002;2022-11-09T07:12:13;14.00;99.90
17346;DHT22;8790;53.590;10.002;2022-11-09T07:14:45;13.90;99.90
17346;DHT22;8790;53.590;10.002;2022-11-09T07:17:17;14.00;99.90
17346;DHT22;8790;53.590;10.002;2022-11-09T07:19:48;14.00;99.90
17346;DHT22;8790;53.590;10.002;2022-11-09T07:22:20;14.00;99.90
17346;DHT22;8790;53.590;10.002;2022-11-09T07:24:52;14.00;99.90
17346;DHT22;8790;53.590;10.002;2022-11-09T07:27:26;14.00;99.90
17346;DHT22;8790;53.590;10.002;2022-11-09T07:29:58;14.00;99.90
17346;DHT22;8790;53.590;10.002;2022-11-09T07:32:32;14.00;99.90
17346;DHT22;8790;53.590;10.002;2022-11-09T07:35:05;14.00;99.90
17346;DHT22;8790;53.590;10.002;2022-11-09T07:37:37;14.10;99.90
17346;DHT22;8790;53.590;10.002;2022-11-09T07:40:09;14.10;99.90
17346;DHT22;8790;53.590;10.002;2022-11-09T07:42:42;14.10;99.90
17346;DHT22;8790;53.590;10.002;2022-11-09T07:45:14;14.10;99.90
17346;DHT22;8790;53.590;10.002;2022-11-09T07:47:46;14.10;99.90
17346;DHT22;8790;53.590;10.002;2022-11-09T07:50:17;14.10;99.90
17346;DHT22;8790;53.590;10.002;2022-11-09T07:52:49;14.10;99.90
17346;DHT22;8790;53.590;10.002;2022-11-09T07:55:21;14.10;99.90
17346;DHT22;8790;53.590;10.002;2022-11-09T07:57:58;14.10;99.90
17346;DHT22;8790;53.590;10.002;2022-11-09T08:00:31;14.20;99.90
17346;DHT22;8790;53.590;10.002;2022-11-09T08:03:04;14.20;99.90
17346;DHT22;8790;53.590;10.002;2022-11-09T08:05:37;14.20;99.90
17346;DHT22;8790;53.590;10.002;2022-11-09T08:08:10;14.20;99.90
17346;DHT22;8790;53.590;10.002;2022-11-09T08:10:43;14.20;99.90
17346;DHT22;8790;53.590;10.002;2022-11-09T08:13:22;14.20;99.90
17346;DHT22;8790;53.590;10.002;2022-11-09T08:15:53;14.20;99.90
17346;DHT22;8790;53.590;10.002;2022-11-09T08:18:25;14.20;99.90
17346;DHT22;8790;53.590;10.002;2022-11-09T08:21:00;14.20;99.90
17346;DHT22;8790;53.590;10.002;2022-11-09T08:23:32;14.20;99.90
17346;DHT22;8790;53.590;10.002;2022-11-09T08:26:05;14.20;99.90
17346;DHT22;8790;53.590;10.002;2022-11-09T08:28:38;14.20;99.90
17346;DHT22;8790;53.590;10.002;2022-11-09T08:31:09;14.30;99.90
17346;DHT22;8790;53.590;10.002;2022-11-09T08:33:41;14.30;99.90
17346;DHT22;8790;53.590;10.002;2022-11-09T08:36:15;14.30;99.90
17346;DHT22;8790;53.590;10.002;2022-11-09T08:38:47;14.30;99.90
17346;DHT22;8790;53.590;10.002;2022-11-09T08:41:18;14.30;99.90
17346;DHT22;8790;53.590;10.002;2022-11-09T08:43:51;14.30;99.90
17346;DHT22;8790;53.590;10.002;2022-11-09T08:46:23;14.30;99.90
17346;DHT22;8790;53.590;10.002;2022-11-09T08:48:55;14.30;99.90
17346;DHT22;8790;53.590;10.002;2022-11-09T08:51:26;14.30;99.90
17346;DHT22;8790;53.590;10.002;2022-11-09T08:53:58;14.30;99.90
17346;DHT22;8790;53.590;10.002;2022-11-09T08:56:30;14.40;99.90
17346;DHT22;8790;53.590;10.002;2022-11-09T08:59:03;14.40;99.90
17346;DHT22;8790;53.590;10.002;2022-11-09T09:01:34;14.40;99.90
17346;DHT22;8790;53.590;10.002;2022-11-09T09:04:06;14.40;99.90
17346;DHT22;8790;53.590;10.002;2022-11-09T09:06:38;14.40;99.90
17346;DHT22;8790;53.590;10.002;2022-11-09T09:09:09;14.40;99.90
17346;DHT22;8790;53.590;10.002;2022-11-09T09:11:41;14.50;99.90
17346;DHT22;8790;53.590;10.002;2022-11-09T09:14:15;14.50;99.90
17346;DHT22;8790;53.590;10.002;2022-11-09T09:16:47;14.50;99.90
17346;DHT22;8790;53.590;10.002;2022-11-09T09:19:18;14.60;99.90
17346;DHT22;8790;53.590;10.002;2022-11-09T09:21:50;14.60;99.90
17346;DHT22;8790;53.590;10.002;2022-11-09T09:24:22;14.60;99.90
17346;DHT22;8790;53.590;10.002;2022-11-09T09:26:54;14.60;99.90
17346;DHT22;8790;53.590;10.002;2022-11-09T09:29:27;14.60;99.90
17346;DHT22;8790;53.590;10.002;2022-11-09T09:31:58;14.70;99.90
17346;DHT22;8790;53.590;10.002;2022-11-09T09:34:30;14.70;99.90
17346;DHT22;8790;53.590;10.002;2022-11-09T09:37:02;14.80;99.90
17346;DHT22;8790;53.590;10.002;2022-11-09T09:39:34;14.80;99.90
17346;DHT22;8790;53.590;10.002;2022-11-09T09:42:06;14.90;99.90
17346;DHT22;8790;53.590;10.002;2022-11-09T09:44:44;14.90;99.90
17346;DHT22;8790;53.590;10.002;2022-11-09T09:47:22;14.90;99.90
17346;DHT22;8790;53.590;10.002;2022-11-09T09:49:58;14.90;99.90
17346;DHT22;8790;53.590;10.002;2022-11-09T09:52:36;14.90;99.90
17346;DHT22;8790;53.590;10.002;2022-11-09T09:55:19;14.80;99.90
17346;DHT22;8790;53.590;10.002;2022-11-09T09:57:58;14.90;99.90
17346;DHT22;8790;53.590;10.002;2022-11-09T10:00:35;14.90;99.90
17346;DHT22;8790;53.590;10.002;2022-11-09T10:03:14;14.90;99.90
17346;DHT22;8790;53.590;10.002;2022-11-09T10:05:55;14.90;99.90
17346;DHT22;8790;53.590;10.002;2022-11-09T10:08:36;14.90;99.90
17346;DHT22;8790;53.590;10.002;2022-11-09T10:11:19;14.90;99.90
17346;DHT22;8790;53.590;10.002;2022-11-09T10:14:17;15.00;99.90
17346;DHT22;8790;53.590;10.002;2022-11-09T10:16:59;15.00;99.90
17346;DHT22;8790;53.590;10.002;2022-11-09T10:19:49;15.00;99.90
17346;DHT22;8790;53.590;10.002;2022-11-09T10:22:28;15.00;99.90
17346;DHT22;8790;53.590;10.002;2022-11-09T10:25:08;15.00;99.90
17346;DHT22;8790;53.590;10.002;2022-11-09T10:27:46;14.90;99.90
17346;DHT22;8790;53.590;10.002;2022-11-09T10:30:20;15.00;99.90
17346;DHT22;8790;53.590;10.002;2022-11-09T10:32:56;15.00;99.90
17346;DHT22;8790;53.590;10.002;2022-11-09T10:35:29;15.00;99.90
17346;DHT22;8790;53.590;10.002;2022-11-09T10:38:02;15.00;99.90
17346;DHT22;8790;53.590;10.002;2022-11-09T10:40:39;15.00;99.90
17346;DHT22;8790;53.590;10.002;2022-11-09T10:43:30;15.00;99.90
17346;DHT22;8790;53.590;10.002;2022-11-09T10:46:21;15.00;99.90
17346;DHT22;8790;53.590;10.002;2022-11-09T10:49:20;15.10;99.90
17346;DHT22;8790;53.590;10.002;2022-11-09T10:52:30;15.00;99.90
17346;DHT22;8790;53.590;10.002;2022-11-09T10:55:23;15.10;99.90
17346;DHT22;8790;53.590;10.002;2022-11-09T10:58:24;15.10;99.90
17346;DHT22;8790;53.590;10.002;2022-11-09T11:01:22;15.10;99.90
17346;DHT22;8790;53.590;10.002;2022-11-09T11:04:20;15.10;99.90
17346;DHT22;8790;53.590;10.002;2022-11-09T11:07:13;15.10;99.90
17346;DHT22;8790;53.590;10.002;2022-11-09T11:10:10;15.10;99.90
17346;DHT22;8790;53.590;10.002;2022-11-09T11:13:21;15.10;99.90
17346;DHT22;8790;53.590;10.002;2022-11-09T11:16:27;15.10;99.90
17346;DHT22;8790;53.590;10.002;2022-11-09T11:19:33;15.20;99.90
17346;DHT22;8790;53.590;10.002;2022-11-09T11:22:24;15.20;99.90
17346;DHT22;8790;53.590;10.002;2022-11-09T11:25:18;15.20;99.90
17346;DHT22;8790;53.590;10.002;2022-11-09T11:28:16;15.20;99.90
17346;DHT22;8790;53.590;10.002;2022-11-09T11:31:10;15.30;99.90
17346;DHT22;8790;53.590;10.002;2022-11-09T11:34:03;15.30;99.90
17346;DHT22;8790;53.590;10.002;2022-11-09T11:37:08;15.30;99.90
17346;DHT22;8790;53.590;10.002;2022-11-09T11:40:06;15.20;99.90
17346;DHT22;8790;53.590;10.002;2022-11-09T11:43:20;15.30;99.90
17346;DHT22;8790;53.590;10.002;2022-11-09T11:46:24;15.20;99.90
17346;DHT22;8790;53.590;10.002;2022-11-09T11:49:39;15.20;99.90
17346;DHT22;8790;53.590;10.002;2022-11-09T11:52:45;15.20;99.90
17346;DHT22;8790;53.590;10.002;2022-11-09T11:55:58;15.20;99.90
17346;DHT22;8790;53.590;10.002;2022-11-09T11:59:05;15.20;99.90
17346;DHT22;8790;53.590;10.002;2022-11-09T12:05:27;15.20;99.90
17346;DHT22;8790;53.590;10.002;2022-11-09T12:08:27;15.20;99.90
17346;DHT22;8790;53.590;10.002;2022-11-09T12:11:38;15.20;99.90
17346;DHT22;8790;53.590;10.002;2022-11-09T12:14:37;15.20;99.90
17346;DHT22;8790;53.590;10.002;2022-11-09T12:17:37;15.30;99.90
17346;DHT22;8790;53.590;10.002;2022-11-09T12:20:33;15.30;99.90
17346;DHT22;8790;53.590;10.002;2022-11-09T12:23:41;15.30;99.90
17346;DHT22;8790;53.590;10.002;2022-11-09T12:26:46;15.30;99.90
17346;DHT22;8790;53.590;10.002;2022-11-09T12:29:49;15.30;99.90
17346;DHT22;8790;53.590;10.002;2022-11-09T12:32:45;15.30;99.90
17346;DHT22;8790;53.590;10.002;2022-11-09T12:35:39;15.30;99.90
17346;DHT22;8790;53.590;10.002;2022-11-09T12:38:37;15.30;99.90
17346;DHT22;8790;53.590;10.002;2022-11-09T12:41:32;15.30;99.90
17346;DHT22;8790;53.590;10.002;2022-11-09T12:44:26;15.30;99.90
17346;DHT22;8790;53.590;10.002;2022-11-09T12:47:23;15.30;99.90
17346;DHT22;8790;53.590;10.002;2022-11-09T12:50:18;15.40;99.90
17346;DHT22;8790;53.590;10.002;2022-11-09T12:53:09;15.40;99.90
17346;DHT22;8790;53.590;10.002;2022-11-09T12:56:03;15.40;99.90
17346;DHT22;8790;53.590;10.002;2022-11-09T12:59:19;15.40;99.90
17346;DHT22;8790;53.590;10.002;2022-11-09T13:02:24;15.40;99.90
17346;DHT22;8790;53.590;10.002;2022-11-09T13:05:31;15.40;99.90
17346;DHT22;8790;53.590;10.002;2022-11-09T13:08:24;15.40;99.90
17346;DHT22;8790;53.590;10.002;2022-11-09T13:11:19;15.40;99.90
17346;DHT22;8790;53.590;10.002;2022-11-09T13:14:32;15.40;99.90
17346;DHT22;8790;53.590;10.002;2022-11-09T13:17:58;15.40;99.90
17346;DHT22;8790;53.590;10.002;2022-11-09T13:20:50;15.30;99.90
17346;DHT22;8790;53.590;10.002;2022-11-09T13:23:40;15.30;99.90
17346;DHT22;8790;53.590;10.002;2022-11-09T13:26:54;15.30;99.90
17346;DHT22;8790;53.590;10.002;2022-11-09T13:29:50;15.30;99.90
17346;DHT22;8790;53.590;10.002;2022-11-09T13:33:23;15.30;99.90
17346;DHT22;8790;53.590;10.002;2022-11-09T13:36:18;15.40;99.90
17346;DHT22;8790;53.590;10.002;2022-11-09T13:39:33;15.30;99.90
17346;DHT22;8790;53.590;10.002;2022-11-09T13:42:29;15.40;99.90
17346;DHT22;8790;53.590;10.002;2022-11-09T13:45:28;15.40;99.90
17346;DHT22;8790;53.590;10.002;2022-11-09T13:48:42;15.30;99.90
17346;DHT22;8790;53.590;10.002;2022-11-09T13:51:41;15.40;99.90
17346;DHT22;8790;53.590;10.002;2022-11-09T13:54:34;15.30;99.90
17346;DHT22;8790;53.590;10.002;2022-11-09T13:57:25;15.30;99.90
17346;DHT22;8790;53.590;10.002;2022-11-09T14:00:18;15.40;99.90
17346;DHT22;8790;53.590;10.002;2022-11-09T14:03:20;15.40;99.90
17346;DHT22;8790;53.590;10.002;2022-11-09T14:06:12;15.30;99.90
17346;DHT22;8790;53.590;10.002;2022-11-09T14:09:03;15.30;99.90
17346;DHT22;8790;53.590;10.002;2022-11-09T14:12:16;15.30;99.90
17346;DHT22;8790;53.590;10.002;2022-11-09T14:15:21;15.30;99.90
17346;DHT22;8790;53.590;10.002;2022-11-09T14:18:21;15.30;99.90
17346;DHT22;8790;53.590;10.002;2022-11-09T14:21:24;15.20;99.90
17346;DHT22;8790;53.590;10.002;2022-11-09T14:24:19;15.20;99.90
17346;DHT22;8790;53.590;10.002;2022-11-09T14:27:16;15.20;99.90
17346;DHT22;8790;53.590;10.002;2022-11-09T14:30:16;15.20;99.90
17346;DHT22;8790;53.590;10.002;2022-11-09T14:33:20;15.20;99.90
17346;DHT22;8790;53.590;10.002;2022-11-09T14:36:12;15.20;99.90
17346;DHT22;8790;53.590;10.002;2022-11-09T14:39:11;15.10;99.90
17346;DHT22;8790;53.590;10.002;2022-11-09T14:42:06;15.10;99.90
17346;DHT22;8790;53.590;10.002;2022-11-09T14:44:57;15.10;99.90
17346;DHT22;8790;53.590;10.002;2022-11-09T14:47:51;15.10;99.90
17346;DHT22;8790;53.590;10.002;2022-11-09T14:50:42;15.10;99.90
17346;DHT22;8790;53.590;10.002;2022-11-09T14:53:35;15.10;99.90
17346;DHT22;8790;53.590;10.002;2022-11-09T14:56:28;15.00;99.90
17346;DHT22;8790;53.590;10.002;2022-11-09T14:59:26;15.00;99.90
17346;DHT22;8790;53.590;10.002;2022-11-09T15:02:19;15.00;99.90
17346;DHT22;8790;53.590;10.002;2022-11-09T15:05:35;15.00;99.90
17346;DHT22;8790;53.590;10.002;2022-11-09T15:08:27;15.00;99.90
17346;DHT22;8790;53.590;10.002;2022-11-09T15:11:17;15.00;99.90
17346;DHT22;8790;53.590;10.002;2022-11-09T15:14:26;15.00;99.90
17346;DHT22;8790;53.590;10.002;2022-11-09T15:17:21;15.00;99.90
17346;DHT22;8790;53.590;10.002;2022-11-09T15:20:31;15.00;99.90
17346;DHT22;8790;53.590;10.002;2022-11-09T15:23:34;15.00;99.90
17346;DHT22;8790;53.590;10.002;2022-11-09T15:26:32;15.00;99.90
17346;DHT22;8790;53.590;10.002;2022-11-09T15:29:37;15.00;99.90
17346;DHT22;8790;53.590;10.002;2022-11-09T15:32:32;15.00;99.90
17346;DHT22;8790;53.590;10.002;2022-11-09T15:35:24;14.90;99.90
17346;DHT22;8790;53.590;10.002;2022-11-09T15:38:28;14.90;99.90
17346;DHT22;8790;53.590;10.002;2022-11-09T15:41:20;14.90;99.90
17346;DHT22;8790;53.590;10.002;2022-11-09T15:44:12;14.90;99.90
17346;DHT22;8790;53.590;10.002;2022-11-09T15:47:19;14.80;99.90
17346;DHT22;8790;53.590;10.002;2022-11-09T15:50:15;14.80;99.90
17346;DHT22;8790;53.590;10.002;2022-11-09T15:53:05;14.80;99.90
17346;DHT22;8790;53.590;10.002;2022-11-09T15:55:55;14.80;99.90
17346;DHT22;8790;53.590;10.002;2022-11-09T15:58:46;14.80;99.90
17346;DHT22;8790;53.590;10.002;2022-11-09T16:01:37;14.70;99.90
17346;DHT22;8790;53.590;10.002;2022-11-09T16:04:29;14.80;99.90
17346;DHT22;8790;53.590;10.002;2022-11-09T16:07:20;14.70;99.90
17346;DHT22;8790;53.590;10.002;2022-11-09T16:10:12;14.70;99.90
17346;DHT22;8790;53.590;10.002;2022-11-09T16:13:03;14.70;99.90
17346;DHT22;8790;53.590;10.002;2022-11-09T16:16:00;14.70;99.90
17346;DHT22;8790;53.590;10.002;2022-11-09T16:18:51;14.70;99.90
17346;DHT22;8790;53.590;10.002;2022-11-09T16:21:43;14.70;99.90
17346;DHT22;8790;53.590;10.002;2022-11-09T16:24:34;14.70;99.90
17346;DHT22;8790;53.590;10.002;2022-11-09T16:27:24;14.70;99.90
17346;DHT22;8790;53.590;10.002;2022-11-09T16:30:15;14.60;99.90
17346;DHT22;8790;53.590;10.002;2022-11-09T16:33:05;14.60;99.90
17346;DHT22;8790;53.590;10.002;2022-11-09T16:35:58;14.60;99.90
17346;DHT22;8790;53.590;10.002;2022-11-09T16:38:52;14.60;99.90
17346;DHT22;8790;53.590;10.002;2022-11-09T16:41:46;14.60;99.90
17346;DHT22;8790;53.590;10.002;2022-11-09T16:44:38;14.50;99.90
17346;DHT22;8790;53.590;10.002;2022-11-09T16:47:29;14.40;99.90
17346;DHT22;8790;53.590;10.002;2022-11-09T16:50:20;14.30;99.90
17346;DHT22;8790;53.590;10.002;2022-11-09T16:53:13;14.10;99.90
17346;DHT22;8790;53.590;10.002;2022-11-09T16:56:05;14.00;99.90
17346;DHT22;8790;53.590;10.002;2022-11-09T16:58:55;13.90;99.90
17346;DHT22;8790;53.590;10.002;2022-11-09T17:01:49;13.80;99.90
17346;DHT22;8790;53.590;10.002;2022-11-09T17:04:40;13.80;99.90
17346;DHT22;8790;53.590;10.002;2022-11-09T17:07:31;13.70;99.90